Terminal Aerodrome Forecast
Issued by NWS

Home | Current Version | Previous Version | Text Only | Print | Product List | Glossary Off
Versions: 1 2 3 4 5 6 7 8 9 10 11 12 13 14 15 16 17 18 19 20 21 22 23 24 25

000
FTUS43 KLOT 201745
TAFDPA
TAF
KDPA 201745Z 2018/2118 09013KT P6SM OVC007
     FM202100 10009KT 6SM BR VCSH SCT006 BKN009
     FM210000 11006KT P6SM SCT017 BKN035 OVC100
     FM210500 19007KT 5SM -SHRA SCT007 OVC015
     FM210900 23009KT P6SM BKN020
     FM211400 25012G19KT P6SM BKN035=

USA.gov is the U.S. government's official web portal to all federal, state and local government web resources and services.